This is the latest recevied weather packets stored in our database for station/object KI6SYE. If no packets are shown the sender has not sent any weather packets the latest 10 day(s).
| Time | Temp. | Humidity | Pressure | Rain* | Wind** | Luminosity | Snow |
|---|---|---|---|---|---|---|---|
| 1778087233 | 17.78° C | 76% | 1018.2 hPa | 0 mm | - | 621 W/m² | - |
| 1778086930 | 17.78° C | 76% | 1018.1 hPa | 0 mm | - | 364 W/m² | - |
| 1778086628 | 17.78° C | 75% | 1018.3 hPa | 0 mm | - | 597 W/m² | - |
| 1778086324 | 17.78° C | 76% | 1018 hPa | 0 mm | - | 590 W/m² | - |
| 1778086022 | 20° C | 68% | 1017.9 hPa | 0 mm | - | 456 W/m² | - |
| 1778085719 | 20° C | 66% | 1018.3 hPa | 0 mm | - | 360 W/m² | - |
| 1778085415 | 20.56° C | 65% | 1018.2 hPa | 0 mm | - | 544 W/m² | - |
| 1778085111 | 19.44° C | 66% | 1018.1 hPa | 0 mm | - | 532 W/m² | - |
| 1778084807 | 19.44° C | 68% | 1018.3 hPa | 0 mm | - | 525 W/m² | - |
| 1778084504 | 20° C | 67% | 1018.1 hPa | 0 mm | - | 499 W/m² | - |
| 1778084201 | 19.44° C | 67% | 1018.4 hPa | 0 mm | - | 485 W/m² | - |
| 1778083898 | 19.44° C | 66% | 1018.3 hPa | 0 mm | - | 474 W/m² | - |
| 1778083596 | 19.44° C | 70% | 1018.3 hPa | 0 mm | - | 459 W/m² | - |
| 1778083292 | 19.44° C | 70% | 1018.5 hPa | 0 mm | - | 445 W/m² | - |
| 1778082992 | 18.89° C | 72% | 1018.3 hPa | 0 mm | - | 429 W/m² | - |
| 1778082688 | 18.33° C | 73% | 1018.2 hPa | 0 mm | - | 414 W/m² | - |
| 1778081551 | 17.78° C | 76% | 1018.1 hPa | 0 mm | - | 344 W/m² | - |
| 1778081247 | 17.22° C | 78% | 1018.2 hPa | 0 mm | - | 329 W/m² | - |
| 1778080944 | 16.67° C | 80% | 1018.4 hPa | 0 mm | - | 310 W/m² | - |
| 1778080644 | 16.67° C | 79% | 1018.6 hPa | 0 mm | - | 292 W/m² | - |
| 1778080340 | 16.67° C | 78% | 1018.3 hPa | 0 mm | - | 276 W/m² | - |
| 1778080037 | 16.11° C | 81% | 1018.3 hPa | 0 mm | - | 257 W/m² | - |
| 1778079734 | 15.56° C | 83% | 1018.5 hPa | 0 mm | - | 240 W/m² | - |
| 1778079431 | 15.56° C | 82% | 1018.4 hPa | 0 mm | - | 227 W/m² | - |
| 1778079127 | 16.11° C | 81% | 1018.4 hPa | 0 mm | - | 209 W/m² | - |
* Rain latest hour (hover to see other rain measurements)
** Current wind speed in m/s (hover to see current wind gust speed)